createdAt,value
2022-08-01T00:00:12.530Z,101338.97
2022-08-01T00:02:42.585Z,101349.09
2022-08-01T00:05:13.642Z,101345.00
2022-08-01T00:07:42.157Z,101347.47
2022-08-01T00:10:16.164Z,101332.16
2022-08-01T00:12:45.147Z,101332.72
2022-08-01T00:15:22.026Z,101341.19
2022-08-01T00:17:51.502Z,101333.56
2022-08-01T00:20:19.948Z,101332.72
2022-08-01T00:22:48.699Z,101333.81
2022-08-01T00:25:17.827Z,101336.00
2022-08-01T00:27:46.670Z,101330.28
2022-08-01T00:30:17.227Z,101331.34
2022-08-01T00:32:46.213Z,101338.19
2022-08-01T00:35:15.091Z,101325.91
2022-08-01T00:37:48.403Z,101322.63
2022-08-01T00:40:20.799Z,101325.94
2022-08-01T00:42:50.200Z,101323.72
2022-08-01T00:45:27.795Z,101326.72
2022-08-01T00:47:59.938Z,101319.66
2022-08-01T00:50:34.369Z,101328.66
2022-08-01T00:53:04.685Z,101328.66
2022-08-01T00:55:34.122Z,101328.94
2022-08-01T00:58:06.610Z,101318.28
2022-08-01T01:00:52.643Z,101324.56
2022-08-01T01:03:56.367Z,101318.03
2022-08-01T01:10:41.563Z,101312.00
2022-08-01T01:13:55.026Z,101316.66
2022-08-01T01:16:24.636Z,101306.56
2022-08-01T01:18:55.441Z,101308.22
2022-08-01T01:21:43.877Z,101306.56
2022-08-01T01:24:17.296Z,101317.72
2022-08-01T01:27:09.408Z,101310.09
2022-08-01T01:29:59.900Z,101306.31
2022-08-01T01:32:43.466Z,101308.75
2022-08-01T01:35:34.579Z,101309.28
2022-08-01T01:38:35.270Z,101303.84
2022-08-01T01:41:12.652Z,101309.53
2022-08-01T01:47:02.534Z,101301.06
2022-08-01T01:49:33.758Z,101295.63
2022-08-01T01:52:04.261Z,101301.63
2022-08-01T01:54:39.236Z,101300.25
2022-08-01T01:57:10.406Z,101299.44
2022-08-01T01:59:41.428Z,101302.19
2022-08-01T02:02:11.311Z,101303.25
2022-08-01T02:04:45.092Z,101298.06
2022-08-01T02:07:22.353Z,101306.50
2022-08-01T02:09:52.535Z,101300.78
2022-08-01T02:12:23.340Z,101302.72
2022-08-01T02:14:55.705Z,101302.44
2022-08-01T02:17:26.233Z,101298.34
2022-08-01T02:19:57.202Z,101296.97
2022-08-01T02:22:36.352Z,101291.53
2022-08-01T02:25:19.687Z,101287.94
2022-08-01T02:28:07.048Z,101291.78
2022-08-01T02:31:26.299Z,101293.72
2022-08-01T02:34:15.018Z,101292.88
2022-08-01T02:36:56.268Z,101292.88
2022-08-01T02:42:33.542Z,101280.28
2022-08-01T02:45:16.239Z,101286.56
2022-08-01T02:48:18.964Z,101289.28
2022-08-01T02:51:12.005Z,101283.25
2022-08-01T02:53:53.575Z,101279.69
2022-08-01T02:56:25.323Z,101278.03
2022-08-01T02:59:05.425Z,101274.25
2022-08-01T03:01:39.351Z,101278.09
2022-08-01T03:04:14.467Z,101276.75
2022-08-01T03:06:42.769Z,101278.41
2022-08-01T03:09:16.637Z,101276.75
2022-08-01T03:11:48.100Z,101279.75
2022-08-01T03:14:18.277Z,101279.47
2022-08-01T03:16:48.142Z,101273.72
2022-08-01T03:19:18.519Z,101276.72
2022-08-01T03:21:48.694Z,101274.00
2022-08-01T03:24:20.363Z,101267.16
2022-08-01T03:26:48.971Z,101268.47
2022-08-01T03:32:24.495Z,101260.31
2022-08-01T03:34:52.351Z,101258.69
2022-08-01T03:37:45.723Z,101252.97
2022-08-01T03:40:28.998Z,101253.78
2022-08-01T03:43:04.944Z,101248.03
2022-08-01T03:45:38.235Z,101254.28
2022-08-01T03:48:11.868Z,101255.09
2022-08-01T03:50:43.067Z,101249.09
2022-08-01T03:53:13.168Z,101252.09
2022-08-01T03:55:44.927Z,101249.94
2022-08-01T03:58:14.844Z,101246.91
2022-08-01T04:00:44.832Z,101246.09
2022-08-01T04:03:14.488Z,101252.34
2022-08-01T04:05:44.656Z,101253.75
2022-08-01T04:08:12.873Z,101252.91
2022-08-01T04:10:45.893Z,101253.72
2022-08-01T04:13:14.477Z,101257.81
2022-08-01T04:15:43.053Z,101263.00
2022-08-01T04:18:11.514Z,101254.53
2022-08-01T04:20:39.717Z,101264.66
2022-08-01T04:23:08.502Z,101261.09
2022-08-01T04:25:41.248Z,101267.63
2022-08-01T04:28:18.028Z,101267.63
2022-08-01T04:30:49.492Z,101261.59
2022-08-01T04:33:22.117Z,101257.25
2022-08-01T04:36:01.477Z,101267.88
2022-08-01T04:38:35.050Z,101274.69
2022-08-01T04:41:08.768Z,101272.78
2022-08-01T04:43:39.150Z,101278.78
2022-08-01T04:46:11.468Z,101276.31
2022-08-01T04:48:40.382Z,101280.97
2022-08-01T04:51:16.669Z,101277.97
2022-08-01T04:53:47.317Z,101279.03
2022-08-01T04:56:17.830Z,101279.88
2022-08-01T04:58:46.389Z,101278.50
2022-08-01T05:01:14.539Z,101279.31
2022-08-01T05:03:42.835Z,101288.31
2022-08-01T05:06:10.624Z,101283.97
2022-08-01T05:08:38.941Z,101281.81
2022-08-01T05:11:06.808Z,101287.03
2022-08-01T05:13:34.529Z,101289.75
2022-08-01T05:16:05.318Z,101291.94
2022-08-01T05:18:32.961Z,101291.41
2022-08-01T05:21:00.770Z,101291.19
2022-08-01T05:23:41.793Z,101300.41
2022-08-01T05:26:14.767Z,101295.53
2022-08-01T05:28:43.040Z,101302.66
2022-08-01T05:31:16.022Z,101303.44
2022-08-01T05:33:43.946Z,101298.25
2022-08-01T05:36:12.207Z,101303.72
2022-08-01T05:38:41.497Z,101305.09
2022-08-01T05:41:09.651Z,101302.66
2022-08-01T05:43:37.826Z,101300.19
2022-08-01T05:46:05.463Z,101306.47
2022-08-01T05:48:33.292Z,101310.31
2022-08-01T05:51:01.874Z,101314.91
2022-08-01T05:53:30.008Z,101318.50
2022-08-01T05:55:58.185Z,101316.63
2022-08-01T05:58:27.009Z,101319.06
2022-08-01T06:00:56.377Z,101318.50
2022-08-01T06:03:24.272Z,101324.72
2022-08-01T06:05:55.431Z,101328.03
2022-08-01T06:08:23.674Z,101342.50
2022-08-01T06:10:51.706Z,101335.91
2022-08-01T06:13:21.123Z,101331.88
2022-08-01T06:15:49.102Z,101335.41
2022-08-01T06:18:17.515Z,101337.06
2022-08-01T06:20:45.525Z,101346.88
2022-08-01T06:23:32.024Z,101346.59
2022-08-01T06:26:00.798Z,101345.53
2022-08-01T06:28:28.960Z,101347.47
2022-08-01T06:30:57.507Z,101340.34
2022-08-01T06:33:28.734Z,101340.69
2022-08-01T06:35:56.925Z,101348.84
2022-08-01T06:38:26.171Z,101336.84
2022-08-01T06:40:54.394Z,101348.84
2022-08-01T06:43:22.704Z,101348.03
2022-08-01T06:45:50.799Z,101352.91
2022-08-01T06:48:18.666Z,101344.44
2022-08-01T06:50:47.598Z,101343.63
2022-08-01T06:53:16.318Z,101339.78
2022-08-01T06:55:44.687Z,101343.09
2022-08-01T06:58:13.048Z,101337.31
2022-08-01T07:00:49.946Z,101347.63
2022-08-01T07:03:20.056Z,101338.06
2022-08-01T07:05:48.101Z,101340.78
2022-08-01T07:08:21.727Z,101343.25
2022-08-01T07:11:04.334Z,101352.81
2022-08-01T07:13:36.849Z,101341.03
2022-08-01T07:16:12.874Z,101349.78
2022-08-01T07:18:49.439Z,101358.78
2022-08-01T07:21:40.666Z,101352.44
2022-08-01T07:24:13.062Z,101363.84
2022-08-01T07:26:56.862Z,101357.75
2022-08-01T07:29:27.160Z,101354.13
2022-08-01T07:31:57.206Z,101360.66
2022-08-01T07:34:30.034Z,101358.97
2022-08-01T07:36:58.438Z,101360.53
2022-08-01T07:39:26.501Z,101359.38
2022-08-01T07:42:07.576Z,101355.72
2022-08-01T07:44:39.210Z,101356.41
2022-08-01T07:47:08.170Z,101361.84
2022-08-01T07:49:40.254Z,101361.81
2022-08-01T07:52:10.220Z,101363.47
2022-08-01T07:54:39.179Z,101359.03
2022-08-01T07:57:07.624Z,101359.47
2022-08-01T07:59:38.604Z,101360.50
2022-08-01T08:02:07.062Z,101359.47
2022-08-01T08:04:35.312Z,101355.63
2022-08-01T08:07:04.934Z,101350.03
2022-08-01T08:09:37.150Z,101346.66
2022-08-01T08:12:07.654Z,101346.34
2022-08-01T08:14:37.675Z,101346.59
2022-08-01T08:17:07.277Z,101344.59
2022-08-01T08:19:39.115Z,101336.88
2022-08-01T08:22:13.445Z,101339.31
2022-08-01T08:24:46.163Z,101340.75
2022-08-01T08:27:15.755Z,101343.56
2022-08-01T08:29:44.988Z,101340.91
2022-08-01T08:32:15.583Z,101344.06
2022-08-01T08:35:20.132Z,101338.94
2022-08-01T08:37:56.075Z,101342.13
2022-08-01T08:40:33.667Z,101340.03
2022-08-01T08:43:07.165Z,101343.94
2022-08-01T08:45:58.970Z,101348.44
2022-08-01T08:48:28.226Z,101350.53
2022-08-01T08:50:59.812Z,101343.63
2022-08-01T08:53:34.796Z,101344.47
2022-08-01T08:56:05.122Z,101348.75
2022-08-01T08:58:39.118Z,101351.81
2022-08-01T09:01:11.081Z,101354.97
2022-08-01T09:03:42.130Z,101359.50
2022-08-01T09:06:11.010Z,101354.44
2022-08-01T09:08:46.611Z,101356.25
2022-08-01T09:11:19.053Z,101361.44
2022-08-01T09:14:18.747Z,101359.41
2022-08-01T09:17:24.240Z,101362.03
2022-08-01T09:20:12.853Z,101364.78
2022-08-01T09:22:47.702Z,101365.50
2022-08-01T09:25:29.592Z,101355.00
2022-08-01T09:28:14.454Z,101364.72
2022-08-01T09:30:47.927Z,101363.69
2022-08-01T09:33:23.487Z,101364.56
2022-08-01T09:36:01.899Z,101364.09
2022-08-01T09:38:32.838Z,101374.47
2022-08-01T09:41:15.887Z,101367.63
2022-08-01T09:43:59.397Z,101368.16
2022-08-01T09:46:52.253Z,101367.84
2022-08-01T09:49:51.764Z,101371.78
2022-08-01T09:52:26.012Z,101371.34
2022-08-01T09:55:07.393Z,101377.88
2022-08-01T09:57:35.345Z,101365.19
2022-08-01T10:00:06.768Z,101368.13
2022-08-01T10:02:42.068Z,101381.56
2022-08-01T10:05:20.804Z,101372.88
2022-08-01T10:08:01.016Z,101370.31
2022-08-01T10:10:31.453Z,101371.44
2022-08-01T10:13:02.077Z,101373.06
2022-08-01T10:15:37.148Z,101375.81
2022-08-01T10:18:16.630Z,101369.34
2022-08-01T10:20:56.766Z,101375.56
2022-08-01T10:23:39.775Z,101368.91
2022-08-01T10:26:18.766Z,101377.19
2022-08-01T10:28:50.824Z,101365.22
2022-08-01T10:31:20.916Z,101370.13
2022-08-01T10:34:00.605Z,101375.31
2022-08-01T10:36:29.897Z,101378.22
2022-08-01T10:38:58.228Z,101375.66
2022-08-01T10:41:27.437Z,101371.50
2022-08-01T10:43:55.748Z,101379.94
2022-08-01T10:46:24.215Z,101362.47
2022-08-01T10:49:17.102Z,101372.97
2022-08-01T10:51:52.943Z,101365.28
2022-08-01T10:54:27.246Z,101363.97
2022-08-01T10:56:57.956Z,101355.38
2022-08-01T10:59:50.079Z,101357.78
2022-08-01T11:02:32.303Z,101357.78
2022-08-01T11:05:40.855Z,101358.53
2022-08-01T11:08:31.898Z,101345.88
2022-08-01T11:11:05.272Z,101346.41
2022-08-01T11:14:05.675Z,101354.66
2022-08-01T11:16:36.261Z,101348.44
2022-08-01T11:19:12.330Z,101350.78
2022-08-01T11:22:01.285Z,101344.13
2022-08-01T11:24:52.542Z,101345.63
2022-08-01T11:27:23.344Z,101349.63
2022-08-01T11:30:12.949Z,101351.06
2022-08-01T11:33:11.167Z,101346.41
2022-08-01T11:36:55.904Z,101343.06
2022-08-01T11:39:16.136Z,101341.25
2022-08-01T11:41:45.793Z,101343.63
2022-08-01T11:44:20.974Z,101343.34
2022-08-01T11:47:07.180Z,101333.44
2022-08-01T11:49:38.733Z,101334.69
2022-08-01T11:52:15.654Z,101339.59
2022-08-01T11:54:52.858Z,101325.75
2022-08-01T11:57:34.762Z,101322.19
2022-08-01T12:00:18.759Z,101324.50
2022-08-01T12:02:48.440Z,101320.47
2022-08-01T12:05:24.847Z,101312.22
2022-08-01T12:07:58.308Z,101313.84
2022-08-01T12:10:49.367Z,101306.94
2022-08-01T12:13:19.512Z,101305.25
2022-08-01T12:15:51.420Z,101300.28
2022-08-01T12:18:23.105Z,101300.06
2022-08-01T12:20:57.047Z,101301.88
2022-08-01T12:23:25.875Z,101296.28
2022-08-01T12:25:54.923Z,101304.56
2022-08-01T12:28:23.061Z,101296.50
2022-08-01T12:30:51.757Z,101292.94
2022-08-01T12:33:22.066Z,101282.91
2022-08-01T12:35:54.514Z,101286.00
2022-08-01T12:38:24.544Z,101291.31
2022-08-01T12:41:11.683Z,101280.16
2022-08-01T12:43:39.823Z,101274.97
2022-08-01T12:46:10.569Z,101270.41
2022-08-01T12:48:54.424Z,101273.03
2022-08-01T12:51:24.056Z,101271.88
2022-08-01T12:53:52.330Z,101272.00
2022-08-01T12:56:35.383Z,101264.69
2022-08-01T12:59:21.542Z,101259.47
2022-08-01T13:01:50.708Z,101262.31
2022-08-01T13:04:25.039Z,101263.44
2022-08-01T13:07:45.038Z,101258.00
2022-08-01T13:10:16.248Z,101260.75
2022-08-01T13:12:57.935Z,101261.72
2022-08-01T13:15:41.596Z,101249.72
2022-08-01T13:18:34.309Z,101252.47
2022-08-01T13:21:19.004Z,101260.75
2022-08-01T13:24:11.508Z,101254.13
2022-08-01T13:26:58.285Z,101252.81
2022-08-01T13:29:49.126Z,101254.75
2022-08-01T13:32:28.431Z,101254.59
2022-08-01T13:35:06.384Z,101256.06
2022-08-01T13:37:34.507Z,101252.00
2022-08-01T13:40:02.525Z,101256.56
2022-08-01T13:42:31.213Z,101253.59
2022-08-01T13:44:59.043Z,101262.72
2022-08-01T13:47:31.989Z,101262.03
2022-08-01T13:50:04.254Z,101254.59
2022-08-01T13:52:33.213Z,101266.41
2022-08-01T13:55:04.535Z,101256.22
2022-08-01T13:57:41.382Z,101246.66
2022-08-01T14:00:11.384Z,101242.91
2022-08-01T14:02:56.133Z,101249.56
2022-08-01T14:09:57.860Z,101242.31
2022-08-01T14:12:40.064Z,101228.03
2022-08-01T14:15:08.829Z,101222.50
2022-08-01T14:17:40.477Z,101224.03
2022-08-01T14:20:16.701Z,101234.25
2022-08-01T14:22:44.462Z,101234.84
2022-08-01T14:25:12.533Z,101220.72
2022-08-01T14:28:03.696Z,101237.78
2022-08-01T14:30:44.944Z,101222.50
2022-08-01T14:33:13.879Z,101223.88
2022-08-01T14:36:01.516Z,101219.81
2022-08-01T14:38:33.585Z,101218.69
2022-08-01T14:41:04.924Z,101215.75
2022-08-01T14:43:34.267Z,101220.97
2022-08-01T14:46:05.372Z,101208.47
2022-08-01T14:48:33.943Z,101217.06
2022-08-01T14:51:05.534Z,101218.84
2022-08-01T14:53:35.777Z,101212.34
2022-08-01T14:56:09.056Z,101212.03
2022-08-01T14:58:36.794Z,101214.00
2022-08-01T15:01:07.264Z,101212.34
2022-08-01T15:03:35.354Z,101215.44
2022-08-01T15:06:03.818Z,101214.78
2022-08-01T15:08:33.203Z,101220.97
2022-08-01T15:11:03.888Z,101220.63
2022-08-01T15:14:16.618Z,101210.41
2022-08-01T15:16:47.972Z,101211.06
2022-08-01T15:19:17.698Z,101207.50
2022-08-01T15:21:45.596Z,101202.00
2022-08-01T15:24:26.441Z,101204.09
2022-08-01T15:26:54.443Z,101198.25
2022-08-01T15:29:22.502Z,101200.53
2022-08-01T15:31:54.151Z,101206.03
2022-08-01T15:34:24.523Z,101201.16
2022-08-01T15:36:52.650Z,101210.09
2022-08-01T15:39:20.676Z,101204.72
2022-08-01T15:41:48.671Z,101212.19
2022-08-01T15:44:19.552Z,101198.25
2022-08-01T15:46:50.847Z,101196.94
2022-08-01T15:49:18.921Z,101185.41
2022-08-01T15:51:46.791Z,101199.84
2022-08-01T15:54:14.980Z,101193.88
2022-08-01T15:56:43.450Z,101189.84
2022-08-01T15:59:12.055Z,101204.25
2022-08-01T16:01:40.684Z,101195.81
2022-08-01T16:04:10.466Z,101186.06
2022-08-01T16:06:41.567Z,101192.41
2022-08-01T16:09:18.572Z,101187.53
2022-08-01T16:11:52.911Z,101185.09
2022-08-01T16:14:22.005Z,101176.47
2022-08-01T16:16:55.513Z,101188.84
2022-08-01T16:19:24.843Z,101193.88
2022-08-01T16:21:53.753Z,101185.25
2022-08-01T16:24:21.643Z,101186.69
2022-08-01T16:26:49.325Z,101190.28
2022-08-01T16:29:20.140Z,101189.31
2022-08-01T16:32:00.518Z,101188.19
2022-08-01T16:34:30.496Z,101185.44
2022-08-01T16:36:58.558Z,101178.13
2022-08-01T16:39:26.040Z,101177.16
2022-08-01T16:41:55.302Z,101183.66
2022-08-01T16:44:33.673Z,101183.16
2022-08-01T16:47:06.472Z,101185.09
2022-08-01T16:49:37.462Z,101187.69
2022-08-01T16:52:06.050Z,101197.75
2022-08-01T16:54:33.720Z,101181.38
2022-08-01T16:57:09.344Z,101190.47
2022-08-01T16:59:41.598Z,101187.03
2022-08-01T17:02:11.378Z,101205.88
2022-08-01T17:04:58.202Z,101208.16
2022-08-01T17:07:38.448Z,101210.59
2022-08-01T17:10:09.674Z,101209.75
2022-08-01T17:12:41.554Z,101202.16
2022-08-01T17:15:14.242Z,101208.47
2022-08-01T17:17:43.589Z,101214.63
2022-08-01T17:20:12.379Z,101207.00
2022-08-01T17:22:41.033Z,101210.09
2022-08-01T17:25:15.747Z,101203.13
2022-08-01T17:27:44.963Z,101207.47
2022-08-01T17:30:15.918Z,101201.00
2022-08-01T17:32:45.985Z,101207.47
2022-08-01T17:35:14.555Z,101205.31
2022-08-01T17:37:48.185Z,101195.94
2022-08-01T17:40:38.997Z,101194.94
2022-08-01T17:46:28.308Z,101187.75
2022-08-01T17:48:58.792Z,101192.38
2022-08-01T17:51:26.549Z,101198.06
2022-08-01T17:54:26.922Z,101199.41
2022-08-01T17:56:56.246Z,101208.41
2022-08-01T17:59:24.506Z,101197.59
2022-08-01T18:01:52.833Z,101202.59
2022-08-01T18:04:20.951Z,101210.84
2022-08-01T18:07:03.798Z,101208.16
2022-08-01T18:09:33.875Z,101220.34
2022-08-01T18:12:12.659Z,101212.41
2022-08-01T18:14:47.905Z,101221.06
2022-08-01T18:17:19.487Z,101216.78
2022-08-01T18:19:56.591Z,101227.22
2022-08-01T18:22:32.853Z,101242.94
2022-08-01T18:25:08.650Z,101252.59
2022-08-01T18:28:29.247Z,101253.75
2022-08-01T18:30:28.855Z,101258.66
2022-08-01T18:33:07.595Z,101258.31
2022-08-01T18:35:52.095Z,101251.81
2022-08-01T18:38:23.269Z,101257.00
2022-08-01T18:40:53.234Z,101264.44
2022-08-01T18:43:21.182Z,101265.31
2022-08-01T18:45:49.547Z,101261.78
2022-08-01T18:48:20.516Z,101261.88
2022-08-01T18:50:48.474Z,101258.41
2022-08-01T18:53:23.377Z,101263.09
2022-08-01T18:56:00.667Z,101257.41
2022-08-01T18:58:47.703Z,101259.22
2022-08-01T19:01:28.688Z,101264.50
2022-08-01T19:04:02.695Z,101279.03
2022-08-01T19:06:31.969Z,101295.34
2022-08-01T19:09:02.565Z,101299.50
2022-08-01T19:11:32.417Z,101289.94
2022-08-01T19:14:04.837Z,101279.25
2022-08-01T19:17:07.926Z,101268.56
2022-08-01T19:19:37.154Z,101277.34
2022-08-01T19:22:05.888Z,101277.16
2022-08-01T19:24:42.278Z,101286.81
2022-08-01T19:27:14.576Z,101293.09
2022-08-01T19:29:57.285Z,101295.44
2022-08-01T19:32:28.412Z,101302.88
2022-08-01T19:35:04.569Z,101307.63
2022-08-01T19:37:36.184Z,101310.38
2022-08-01T19:40:04.505Z,101296.84
2022-08-01T19:42:33.135Z,101282.69
2022-08-01T19:45:20.718Z,101290.03
2022-08-01T19:48:32.529Z,101288.41
2022-08-01T19:51:05.795Z,101287.59
2022-08-01T19:53:39.971Z,101284.84
2022-08-01T19:56:10.492Z,101287.09
2022-08-01T19:58:44.420Z,101293.06
2022-08-01T20:01:18.743Z,101295.81
2022-08-01T20:03:51.787Z,101293.91
2022-08-01T20:06:24.552Z,101292.56
2022-08-01T20:08:55.349Z,101297.53
2022-08-01T20:11:25.213Z,101286.34
2022-08-01T20:13:54.448Z,101276.09
2022-08-01T20:16:23.062Z,101275.56
2022-08-01T20:18:52.235Z,101279.72
2022-08-01T20:21:20.545Z,101281.69
2022-08-01T20:23:51.863Z,101281.44
2022-08-01T20:26:22.867Z,101287.47
2022-08-01T20:28:50.885Z,101297.09
2022-08-01T20:31:19.779Z,101295.16
2022-08-01T20:33:49.723Z,101298.22
2022-08-01T20:36:24.870Z,101300.97
2022-08-01T20:39:15.257Z,101301.56
2022-08-01T20:41:44.567Z,101298.00
2022-08-01T20:44:13.801Z,101299.13
2022-08-01T20:46:42.257Z,101302.66
2022-08-01T20:49:13.384Z,101294.00
2022-08-01T20:51:43.077Z,101298.75
2022-08-01T20:54:11.518Z,101297.56
2022-08-01T20:56:51.908Z,101301.94
2022-08-01T20:59:55.841Z,101305.97
2022-08-01T21:02:53.451Z,101309.75
2022-08-01T21:05:30.152Z,101318.69
2022-08-01T21:08:04.832Z,101315.25
2022-08-01T21:10:40.259Z,101318.09
2022-08-01T21:13:19.044Z,101332.09
2022-08-01T21:16:07.313Z,101329.34
2022-08-01T21:19:21.385Z,101317.75
2022-08-01T21:22:01.811Z,101320.47
2022-08-01T21:24:39.493Z,101313.88
2022-08-01T21:27:13.794Z,101326.72
2022-08-01T21:29:42.289Z,101320.94
2022-08-01T21:32:17.966Z,101312.72
2022-08-01T21:37:52.469Z,101309.44
2022-08-01T21:40:25.499Z,101308.41
2022-08-01T21:42:55.502Z,101295.34
2022-08-01T21:45:25.903Z,101285.97
2022-08-01T21:47:58.002Z,101287.84
2022-08-01T21:50:27.181Z,101279.09
2022-08-01T21:53:11.894Z,101281.69
2022-08-01T21:55:59.427Z,101282.88
2022-08-01T21:59:08.622Z,101277.25
2022-08-01T22:02:10.363Z,101274.22
2022-08-01T22:05:04.062Z,101281.34
2022-08-01T22:08:07.666Z,101290.13
2022-08-01T22:10:39.911Z,101295.63
2022-08-01T22:13:12.161Z,101290.97
2022-08-01T22:15:46.255Z,101282.44
2022-08-01T22:18:14.899Z,101286.06
2022-08-01T22:20:47.462Z,101280.50
2022-08-01T22:23:23.855Z,101277.84
2022-08-01T22:25:57.373Z,101269.72
2022-08-01T22:28:25.307Z,101281.41
2022-08-01T22:30:54.905Z,101286.06
2022-08-01T22:33:32.896Z,101297.63
2022-08-01T22:36:03.449Z,101300.22
2022-08-01T22:38:42.272Z,101297.59
2022-08-01T22:41:17.472Z,101291.47
2022-08-01T22:44:26.938Z,101292.00
2022-08-01T22:47:26.567Z,101284.28
2022-08-01T22:50:04.632Z,101282.19
2022-08-01T22:52:45.508Z,101282.13
2022-08-01T22:55:58.585Z,101290.16
2022-08-01T22:58:25.118Z,101287.22
2022-08-01T23:01:00.789Z,101288.69
2022-08-01T23:03:34.103Z,101283.78
2022-08-01T23:06:12.941Z,101289.56
2022-08-01T23:08:45.364Z,101285.25
2022-08-01T23:11:15.115Z,101286.91
2022-08-01T23:13:44.749Z,101282.81
2022-08-01T23:16:17.313Z,101282.81
2022-08-01T23:19:18.560Z,101281.41
2022-08-01T23:21:47.710Z,101282.72
2022-08-01T23:24:15.862Z,101284.97
2022-08-01T23:26:46.306Z,101277.34
2022-08-01T23:29:14.768Z,101278.44
2022-08-01T23:32:10.589Z,101272.66
2022-08-01T23:34:36.400Z,101273.47
2022-08-01T23:37:04.003Z,101273.19
2022-08-01T23:39:32.182Z,101278.78
2022-08-01T23:42:07.759Z,101269.00
2022-08-01T23:44:35.617Z,101261.16
2022-08-01T23:47:06.851Z,101269.13
2022-08-01T23:49:35.919Z,101266.22
2022-08-01T23:52:22.139Z,101274.72
2022-08-01T23:54:50.153Z,101269.84
2022-08-01T23:57:18.147Z,101273.19
2022-08-01T23:59:53.238Z,101277.31
